createdAt,value
2019-05-23T00:00:18.093Z,0
2019-05-23T00:03:48.060Z,0
2019-05-23T00:07:18.038Z,0
2019-05-23T00:10:47.988Z,0
2019-05-23T00:14:17.961Z,0
2019-05-23T00:17:47.931Z,0
2019-05-23T00:21:17.911Z,0
2019-05-23T00:24:47.899Z,0
2019-05-23T00:28:17.852Z,0
2019-05-23T00:31:47.798Z,0
2019-05-23T00:35:17.777Z,0
2019-05-23T00:38:47.833Z,0
2019-05-23T00:42:17.787Z,0
2019-05-23T00:45:47.739Z,0
2019-05-23T00:49:19.531Z,0
2019-05-23T00:52:49.498Z,0
2019-05-23T00:56:19.608Z,0
2019-05-23T00:59:49.575Z,0
2019-05-23T01:03:19.541Z,0
2019-05-23T01:06:49.479Z,0
2019-05-23T01:10:19.486Z,0
2019-05-23T01:13:49.522Z,0
2019-05-23T01:17:20.553Z,0
2019-05-23T01:20:50.396Z,0
2019-05-23T01:24:20.360Z,0
2019-05-23T01:27:50.308Z,0
2019-05-23T01:31:21.786Z,0
2019-05-23T01:34:51.262Z,0
2019-05-23T01:38:21.220Z,0
2019-05-23T01:41:51.211Z,0
2019-05-23T01:45:21.152Z,0
2019-05-23T01:48:51.226Z,0
2019-05-23T01:52:21.166Z,0
2019-05-23T01:55:51.153Z,0
2019-05-23T01:59:21.110Z,0
2019-05-23T02:02:51.040Z,0
2019-05-23T02:06:21.060Z,0
2019-05-23T02:09:51.019Z,0
2019-05-23T02:13:20.973Z,0
2019-05-23T02:16:50.933Z,0
2019-05-23T02:20:18.904Z,0
2019-05-23T02:23:48.878Z,0
2019-05-23T02:27:18.801Z,0
2019-05-23T02:30:48.755Z,0
2019-05-23T02:34:18.905Z,0
2019-05-23T02:37:48.849Z,0
2019-05-23T02:41:18.863Z,0
2019-05-23T02:44:48.828Z,0
2019-05-23T02:48:18.815Z,0
2019-05-23T02:51:48.795Z,0
2019-05-23T02:55:18.769Z,5.625
2019-05-23T02:58:49.383Z,5.625
2019-05-23T03:02:19.367Z,5.625
2019-05-23T03:05:50.366Z,5.625
2019-05-23T03:09:21.358Z,11.25
2019-05-23T03:12:51.313Z,11.25
2019-05-23T03:16:21.356Z,16.875
2019-05-23T03:19:51.315Z,16.875
2019-05-23T03:23:22.250Z,16.875
2019-05-23T03:26:52.203Z,22.5
2019-05-23T03:30:22.140Z,22.5
2019-05-23T03:33:52.234Z,22.5
2019-05-23T03:37:22.149Z,28.125
2019-05-23T03:40:52.102Z,28.125
2019-05-23T03:44:22.060Z,33.75
2019-05-23T03:47:52.015Z,33.75
2019-05-23T03:51:22.004Z,33.75
2019-05-23T03:54:51.953Z,39.375
2019-05-23T03:58:21.950Z,39.375
2019-05-23T04:01:52.924Z,39.375
2019-05-23T04:05:22.868Z,39.375
2019-05-23T04:08:52.834Z,45
2019-05-23T04:12:22.813Z,45
2019-05-23T04:15:52.760Z,45
2019-05-23T04:19:23.376Z,45
2019-05-23T04:22:53.348Z,45
2019-05-23T04:26:23.468Z,45
2019-05-23T04:29:53.444Z,45
2019-05-23T04:33:23.377Z,45
2019-05-23T04:36:53.390Z,50.625
2019-05-23T04:40:23.343Z,50.625
2019-05-23T04:43:54.210Z,50.625
2019-05-23T04:47:28.578Z,50.625
2019-05-23T04:51:01.508Z,56.25
2019-05-23T04:54:32.466Z,56.25
2019-05-23T04:58:05.518Z,56.25
2019-05-23T05:01:35.470Z,56.25
2019-05-23T05:05:05.445Z,56.25
2019-05-23T05:08:35.388Z,61.875
2019-05-23T05:12:05.508Z,61.875
2019-05-23T05:15:36.404Z,61.875
2019-05-23T05:19:06.371Z,61.875
2019-05-23T05:22:36.321Z,67.5
2019-05-23T05:26:06.280Z,67.5
2019-05-23T05:29:36.451Z,67.5
2019-05-23T05:33:06.376Z,67.5
2019-05-23T05:36:36.324Z,73.125
2019-05-23T05:40:06.276Z,73.125
2019-05-23T05:43:36.281Z,78.75
2019-05-23T05:47:06.411Z,101.25
2019-05-23T05:50:36.330Z,78.75
2019-05-23T05:54:06.327Z,101.25
2019-05-23T05:57:36.294Z,140.625
2019-05-23T06:01:06.246Z,112.5
2019-05-23T06:04:36.455Z,106.875
2019-05-23T06:08:06.311Z,129.375
2019-05-23T06:11:36.348Z,135
2019-05-23T06:15:05.332Z,163.125
2019-05-23T06:18:35.280Z,196.875
2019-05-23T06:22:05.488Z,225
2019-05-23T06:25:35.381Z,191.25
2019-05-23T06:29:05.350Z,196.875
2019-05-23T06:32:35.309Z,196.875
2019-05-23T06:36:05.266Z,174.375
2019-05-23T06:39:35.231Z,174.375
2019-05-23T06:43:06.197Z,191.25
2019-05-23T06:46:36.741Z,241.875
2019-05-23T06:50:06.713Z,225
2019-05-23T06:53:36.688Z,236.25
2019-05-23T06:57:06.856Z,264.375
2019-05-23T07:00:36.806Z,219.375
2019-05-23T07:04:06.773Z,247.5
2019-05-23T07:07:36.764Z,225
2019-05-23T07:11:06.703Z,270
2019-05-23T07:14:37.656Z,230.625
2019-05-23T07:18:07.671Z,241.875
2019-05-23T07:21:37.618Z,241.875
2019-05-23T07:25:07.586Z,264.375
2019-05-23T07:28:37.551Z,247.5
2019-05-23T07:32:08.499Z,281.25
2019-05-23T07:35:38.473Z,270
2019-05-23T07:39:11.576Z,298.125
2019-05-23T07:42:40.370Z,281.25
2019-05-23T07:46:10.337Z,253.125
2019-05-23T07:49:40.534Z,275.625
2019-05-23T07:53:10.495Z,236.25
2019-05-23T07:56:40.441Z,264.375
2019-05-23T08:00:10.412Z,264.375
2019-05-23T08:03:40.366Z,275.625
2019-05-23T08:07:11.341Z,247.5
2019-05-23T08:10:41.312Z,303.75
2019-05-23T08:14:14.291Z,303.75
2019-05-23T08:17:44.271Z,253.125
2019-05-23T08:21:14.236Z,292.5
2019-05-23T08:24:44.282Z,247.5
2019-05-23T08:28:14.269Z,270
2019-05-23T08:31:44.215Z,286.875
2019-05-23T08:35:18.137Z,292.5
2019-05-23T08:38:47.266Z,247.5
2019-05-23T08:42:17.295Z,253.125
2019-05-23T08:45:47.209Z,309.375
2019-05-23T08:49:17.218Z,241.875
2019-05-23T08:52:47.175Z,253.125
2019-05-23T08:56:20.117Z,264.375
2019-05-23T08:59:50.111Z,275.625
2019-05-23T09:03:20.071Z,292.5
2019-05-23T09:06:50.018Z,315
2019-05-23T09:10:19.995Z,348.75
2019-05-23T09:13:50.113Z,585
2019-05-23T09:17:22.057Z,781.875
2019-05-23T09:20:51.977Z,916.875
2019-05-23T09:24:21.934Z,2278.125
2019-05-23T09:27:52.907Z,2626.875
2019-05-23T09:31:22.927Z,3206.25
2019-05-23T09:34:52.879Z,3403.125
2019-05-23T09:38:23.885Z,3436.875
2019-05-23T09:41:53.823Z,3510
2019-05-23T09:45:23.806Z,3588.75
2019-05-23T09:48:53.832Z,3397.5
2019-05-23T09:52:23.801Z,3909.375
2019-05-23T09:55:55.827Z,3363.75
2019-05-23T09:59:24.778Z,4275
2019-05-23T10:02:54.747Z,4702.5
2019-05-23T10:06:26.278Z,4286.25
2019-05-23T10:09:54.249Z,3695.625
2019-05-23T10:13:38.183Z,3858.75
2019-05-23T10:16:59.100Z,956.25
2019-05-23T10:20:29.108Z,4635
2019-05-23T10:23:59.097Z,4680
2019-05-23T10:27:29.056Z,4258.125
2019-05-23T10:30:59.039Z,1732.5
2019-05-23T10:34:29.029Z,3256.875
2019-05-23T10:38:00.180Z,3330
2019-05-23T10:41:30.137Z,3076.875
2019-05-23T10:45:00.110Z,360
2019-05-23T10:48:30.069Z,326.25
2019-05-23T10:52:00.808Z,309.375
2019-05-23T10:55:30.935Z,326.25
2019-05-23T10:59:00.917Z,472.5
2019-05-23T11:02:31.554Z,1046.25
2019-05-23T11:06:15.323Z,1141.875
2019-05-23T11:09:39.148Z,1226.25
2019-05-23T11:13:10.108Z,1434.375
2019-05-23T11:16:41.055Z,1653.75
2019-05-23T11:20:11.011Z,1636.875
2019-05-23T11:23:41.000Z,1783.125
2019-05-23T11:27:11.614Z,1912.5
2019-05-23T11:30:41.730Z,1788.75
2019-05-23T11:34:11.717Z,1732.5
2019-05-23T11:37:43.663Z,1743.75
2019-05-23T11:41:13.642Z,1698.75
2019-05-23T11:44:43.758Z,1968.75
2019-05-23T11:48:16.084Z,1974.375
2019-05-23T11:51:44.808Z,2160
2019-05-23T11:55:15.773Z,2070
2019-05-23T11:58:46.082Z,2137.5
2019-05-23T12:02:16.039Z,2064.375
2019-05-23T12:05:46.021Z,1411.875
2019-05-23T12:09:15.998Z,956.25
2019-05-23T12:12:45.985Z,731.25
2019-05-23T12:16:16.248Z,376.875
2019-05-23T12:19:46.109Z,613.125
2019-05-23T12:23:16.086Z,348.75
2019-05-23T12:26:46.070Z,331.875
2019-05-23T12:30:16.033Z,326.25
2019-05-23T12:33:46.182Z,354.375
2019-05-23T12:37:20.808Z,326.25
2019-05-23T12:40:50.117Z,348.75
2019-05-23T12:44:21.112Z,371.25
2019-05-23T12:47:51.167Z,1164.375
2019-05-23T12:51:21.820Z,2278.125
2019-05-23T12:54:51.810Z,2154.375
2019-05-23T12:58:21.886Z,2278.125
2019-05-23T13:01:51.825Z,1530
2019-05-23T13:05:22.784Z,472.5
2019-05-23T13:08:52.893Z,421.875
2019-05-23T13:12:22.845Z,399.375
2019-05-23T13:15:52.814Z,388.125
2019-05-23T13:19:23.821Z,382.5
2019-05-23T13:22:53.825Z,382.5
2019-05-23T13:26:24.905Z,371.25
2019-05-23T13:29:54.864Z,371.25
2019-05-23T13:33:24.856Z,365.625
2019-05-23T13:36:54.901Z,360
2019-05-23T13:40:24.794Z,360
2019-05-23T13:43:54.880Z,348.75
2019-05-23T13:47:24.829Z,337.5
2019-05-23T13:50:54.804Z,331.875
2019-05-23T13:54:24.781Z,326.25
2019-05-23T13:57:54.820Z,315
2019-05-23T14:01:25.072Z,309.375
2019-05-23T14:04:53.111Z,309.375
2019-05-23T14:08:23.100Z,309.375
2019-05-23T14:12:19.876Z,315
2019-05-23T14:15:28.919Z,309.375
2019-05-23T14:18:58.899Z,315
2019-05-23T14:22:28.913Z,309.375
2019-05-23T14:26:17.085Z,303.75
2019-05-23T14:29:47.703Z,298.125
2019-05-23T14:33:18.269Z,286.875
2019-05-23T14:36:48.371Z,292.5
2019-05-23T14:40:18.517Z,303.75
2019-05-23T14:43:48.818Z,298.125
2019-05-23T14:47:18.913Z,292.5
2019-05-23T14:50:48.984Z,281.25
2019-05-23T14:54:19.157Z,292.5
2019-05-23T14:57:49.198Z,286.875
2019-05-23T15:01:21.349Z,298.125
2019-05-23T15:04:51.381Z,292.5
2019-05-23T15:08:21.578Z,298.125
2019-05-23T15:11:51.717Z,292.5
2019-05-23T15:15:21.815Z,286.875
2019-05-23T15:18:51.935Z,286.875
2019-05-23T15:22:21.990Z,270
2019-05-23T15:25:52.127Z,270
2019-05-23T15:29:22.100Z,253.125
2019-05-23T15:32:52.064Z,247.5
2019-05-23T15:36:22.144Z,253.125
2019-05-23T15:39:52.120Z,247.5
2019-05-23T15:43:22.079Z,241.875
2019-05-23T15:46:52.044Z,241.875
2019-05-23T15:50:22.004Z,241.875
2019-05-23T15:53:53.127Z,230.625
2019-05-23T15:57:23.123Z,219.375
2019-05-23T16:00:53.152Z,213.75
2019-05-23T16:04:23.124Z,213.75
2019-05-23T16:07:53.119Z,202.5
2019-05-23T16:11:23.160Z,202.5
2019-05-23T16:14:53.224Z,196.875
2019-05-23T16:18:23.257Z,196.875
2019-05-23T16:21:53.346Z,191.25
2019-05-23T16:25:23.355Z,180
2019-05-23T16:28:53.480Z,180
2019-05-23T16:32:24.061Z,180
2019-05-23T16:35:54.042Z,180
2019-05-23T16:39:25.083Z,168.75
2019-05-23T16:42:55.057Z,163.125
2019-05-23T16:46:25.239Z,157.5
2019-05-23T16:49:55.284Z,146.25
2019-05-23T16:53:25.378Z,146.25
2019-05-23T16:56:55.411Z,146.25
2019-05-23T17:00:26.639Z,135
2019-05-23T17:03:58.604Z,140.625
2019-05-23T17:07:28.624Z,140.625
2019-05-23T17:10:58.608Z,135
2019-05-23T17:14:28.580Z,140.625
2019-05-23T17:18:03.405Z,140.625
2019-05-23T17:21:32.718Z,140.625
2019-05-23T17:25:02.828Z,140.625
2019-05-23T17:28:34.030Z,135
2019-05-23T17:32:04.336Z,129.375
2019-05-23T17:35:34.328Z,129.375
2019-05-23T17:39:04.361Z,129.375
2019-05-23T17:42:34.420Z,129.375
2019-05-23T17:46:04.427Z,135
2019-05-23T17:49:34.415Z,140.625
2019-05-23T17:53:04.393Z,140.625
2019-05-23T17:56:34.480Z,129.375
2019-05-23T18:00:02.598Z,118.125
2019-05-23T18:03:32.750Z,106.875
2019-05-23T18:07:02.794Z,95.625
2019-05-23T18:10:44.364Z,78.75
2019-05-23T18:14:07.741Z,78.75
2019-05-23T18:17:37.728Z,78.75
2019-05-23T18:21:08.727Z,73.125
2019-05-23T18:24:38.839Z,67.5
2019-05-23T18:28:08.848Z,61.875
2019-05-23T18:31:38.895Z,50.625
2019-05-23T18:35:09.537Z,45
2019-05-23T18:38:39.587Z,39.375
2019-05-23T18:42:10.641Z,33.75
2019-05-23T18:45:40.790Z,33.75
2019-05-23T18:49:10.826Z,28.125
2019-05-23T18:52:40.857Z,22.5
2019-05-23T18:56:10.883Z,16.875
2019-05-23T18:59:40.939Z,16.875
2019-05-23T19:03:10.927Z,11.25
2019-05-23T19:06:40.935Z,11.25
2019-05-23T19:10:10.915Z,5.625
2019-05-23T19:13:40.933Z,5.625
2019-05-23T19:17:11.202Z,5.625
2019-05-23T19:20:42.218Z,5.625
2019-05-23T19:24:12.299Z,0
2019-05-23T19:27:42.323Z,0
2019-05-23T19:31:12.345Z,0
2019-05-23T19:34:42.504Z,0
2019-05-23T19:38:12.497Z,0
2019-05-23T19:41:42.645Z,0
2019-05-23T19:45:12.696Z,0
2019-05-23T19:48:42.768Z,0
2019-05-23T19:52:13.012Z,0
2019-05-23T19:55:44.985Z,0
2019-05-23T19:59:15.005Z,0
2019-05-23T20:02:44.997Z,0
2019-05-23T20:06:15.033Z,0
2019-05-23T20:09:45.033Z,0
2019-05-23T20:13:18.510Z,0
2019-05-23T20:16:47.063Z,0
2019-05-23T20:20:17.036Z,0
2019-05-23T20:23:47.431Z,0
2019-05-23T20:27:17.386Z,0
2019-05-23T20:30:47.403Z,0
2019-05-23T20:34:18.095Z,0
2019-05-23T20:37:48.243Z,0
2019-05-23T20:41:18.336Z,0
2019-05-23T20:44:48.434Z,0
2019-05-23T20:48:18.517Z,0
2019-05-23T20:51:48.549Z,0
2019-05-23T20:55:18.559Z,0
2019-05-23T20:58:48.644Z,0
2019-05-23T21:02:18.648Z,0
2019-05-23T21:05:48.669Z,0
2019-05-23T21:09:19.692Z,0
2019-05-23T21:12:49.691Z,0
2019-05-23T21:16:20.424Z,0
2019-05-23T21:19:50.456Z,0
2019-05-23T21:23:20.478Z,0
2019-05-23T21:26:50.607Z,0
2019-05-23T21:30:20.725Z,0
2019-05-23T21:33:51.006Z,0
2019-05-23T21:37:21.098Z,0
2019-05-23T21:40:51.225Z,0
2019-05-23T21:44:21.300Z,0
2019-05-23T21:47:52.386Z,0
2019-05-23T21:51:22.573Z,0
2019-05-23T21:54:52.623Z,0
2019-05-23T21:58:23.658Z,0
2019-05-23T22:01:53.751Z,0
2019-05-23T22:05:24.015Z,0
2019-05-23T22:08:54.231Z,0
2019-05-23T22:12:25.186Z,0
2019-05-23T22:15:55.195Z,0
2019-05-23T22:19:25.228Z,0
2019-05-23T22:22:55.181Z,0
2019-05-23T22:26:25.315Z,0
2019-05-23T22:29:56.319Z,0
2019-05-23T22:33:26.356Z,0
2019-05-23T22:36:56.328Z,0
2019-05-23T22:40:26.638Z,0
2019-05-23T22:43:56.533Z,0
2019-05-23T22:47:26.543Z,0
2019-05-23T22:50:56.746Z,0
2019-05-23T22:54:27.017Z,0
2019-05-23T22:57:57.088Z,0
2019-05-23T23:01:27.082Z,0
2019-05-23T23:04:58.104Z,0
2019-05-23T23:08:28.129Z,0
2019-05-23T23:11:58.127Z,0
2019-05-23T23:15:28.262Z,0
2019-05-23T23:18:59.109Z,0
2019-05-23T23:22:29.119Z,0
2019-05-23T23:26:00.145Z,0
2019-05-23T23:29:30.100Z,0
2019-05-23T23:33:00.138Z,0
2019-05-23T23:36:30.118Z,0
2019-05-23T23:40:00.147Z,0
2019-05-23T23:43:30.177Z,0
2019-05-23T23:47:00.215Z,0
2019-05-23T23:50:30.367Z,0
2019-05-23T23:54:00.622Z,0
2019-05-23T23:57:31.665Z,0
